Time;durP1;ratioP1;P1;durP2;ratioP2;P2;SDS_P1;SDS_P2;PMS_P1;PMS_P2;Temp;Humidity;BMP_temperature;BMP_pressure;BME280_temperature;BME280_humidity;BME280_pressure;Samples;Min_cycle;Max_cycle;Signal;HPM_P1;HPM_P2
2022/11/29 00:01:03;;;;;;;13.70;9.98;;;20.80;45.60;;;;;;5043765;28;20025;-53
2022/11/29 00:03:29;;;;;;;12.48;9.82;;;20.80;45.60;;;;;;5039189;28;20025;-51
2022/11/29 00:05:56;;;;;;;13.52;9.55;;;20.80;45.60;;;;;;5040347;28;20090;-51
2022/11/29 00:08:23;;;;;;;14.75;10.48;;;20.80;45.60;;;;;;5044251;28;20025;-56
2022/11/29 00:10:49;;;;;;;15.02;10.48;;;20.80;45.60;;;;;;5051589;28;20025;-55
2022/11/29 00:13:16;;;;;;;17.00;10.32;;;20.80;45.60;;;;;;5039102;28;20049;-53
2022/11/29 00:15:42;;;;;;;14.13;9.95;;;20.80;45.60;;;;;;5039492;28;20055;-52
2022/11/29 00:18:08;;;;;;;14.38;9.93;;;20.80;45.70;;;;;;5048331;28;20030;-51
2022/11/29 00:20:34;;;;;;;14.05;10.07;;;20.80;45.70;;;;;;5042669;28;20055;-56
2022/11/29 00:23:00;;;;;;;16.25;9.48;;;20.80;45.70;;;;;;5049050;28;20037;-54
2022/11/29 00:25:26;;;;;;;15.32;10.02;;;20.80;45.70;;;;;;5043943;28;20033;-53
2022/11/29 00:27:52;;;;;;;15.98;10.15;;;20.70;45.60;;;;;;5045701;28;20334;-51
2022/11/29 00:30:19;;;;;;;13.32;9.25;;;20.70;45.60;;;;;;5027896;28;20032;-52
2022/11/29 00:32:45;;;;;;;15.43;10.02;;;20.80;45.70;;;;;;5043491;28;20041;-54
2022/11/29 00:35:11;;;;;;;13.70;10.15;;;20.70;45.60;;;;;;5028773;28;20373;-55
2022/11/29 00:37:37;;;;;;;16.38;10.15;;;20.70;45.60;;;;;;5044623;28;20021;-54
2022/11/29 00:40:04;;;;;;;14.40;9.75;;;20.70;45.60;;;;;;5044268;28;20446;-50
2022/11/29 00:42:30;;;;;;;12.88;9.18;;;20.70;45.60;;;;;;5027594;28;20093;-53
2022/11/29 00:44:56;;;;;;;14.93;8.88;;;20.70;45.60;;;;;;5044654;28;20033;-52
2022/11/29 00:47:22;;;;;;;12.55;8.98;;;20.70;45.60;;;;;;5044743;28;20025;-55
2022/11/29 00:49:48;;;;;;;12.70;8.60;;;20.70;45.60;;;;;;5051113;28;20029;-56
2022/11/29 00:52:13;;;;;;;12.20;9.32;;;20.70;45.60;;;;;;5042840;28;20063;-55
2022/11/29 00:54:39;;;;;;;14.50;9.50;;;20.70;45.60;;;;;;5046318;28;21829;-53
2022/11/29 00:57:05;;;;;;;12.27;9.13;;;20.70;45.60;;;;;;5040846;28;20033;-56
2022/11/29 00:59:31;;;;;;;13.98;8.98;;;20.70;45.60;;;;;;5043529;28;20029;-56
2022/11/29 01:01:56;;;;;;;13.75;9.38;;;20.70;45.60;;;;;;5044085;28;20033;-56
2022/11/29 01:04:22;;;;;;;14.73;9.32;;;20.70;45.60;;;;;;5047598;28;20060;-52
2022/11/29 01:06:52;;;;;;;12.60;8.43;;;20.70;45.60;;;;;;5044172;28;20033;-51
2022/11/29 01:09:18;;;;;;;14.15;9.10;;;20.60;45.60;;;;;;5046705;28;20049;-53
2022/11/29 01:11:44;;;;;;;13.88;9.60;;;20.60;45.60;;;;;;5045896;28;20470;-54
2022/11/29 01:14:10;;;;;;;13.85;10.02;;;20.60;45.60;;;;;;5046219;28;20033;-53
2022/11/29 01:16:36;;;;;;;14.02;10.07;;;20.60;45.60;;;;;;5034917;28;20040;-52
2022/11/29 01:19:02;;;;;;;13.65;9.75;;;20.60;45.60;;;;;;5039212;28;20050;-52
2022/11/29 01:21:28;;;;;;;15.40;10.27;;;20.60;45.60;;;;;;5043235;28;20492;-54
2022/11/29 01:23:54;;;;;;;13.93;9.30;;;20.60;45.60;;;;;;5046080;28;20029;-52
2022/11/29 01:26:24;;;;;;;18.02;10.68;;;20.60;45.60;;;;;;5041973;28;20095;-53
2022/11/29 01:28:52;;;;;;;17.02;10.90;;;20.60;45.60;;;;;;5040953;28;20051;-52
2022/11/29 01:31:21;;;;;;;15.77;10.70;;;20.60;45.60;;;;;;5038631;28;20056;-55
2022/11/29 01:33:47;;;;;;;12.27;9.27;;;20.60;45.60;;;;;;5028623;28;20041;-52
2022/11/29 01:36:14;;;;;;;15.25;9.90;;;20.50;45.60;;;;;;5049230;28;20037;-57
2022/11/29 01:38:41;;;;;;;15.15;10.57;;;20.50;45.60;;;;;;5044934;28;20038;-56
2022/11/29 01:41:16;;;;;;;15.10;10.27;;;20.50;45.60;;;;;;5038338;28;20143;-53
2022/11/29 01:43:58;;;;;;;14.82;10.25;;;20.50;45.60;;;;;;5049257;28;20033;-54
2022/11/29 01:46:24;;;;;;;16.08;10.57;;;20.50;45.70;;;;;;5045443;28;20106;-52
2022/11/29 01:48:52;;;;;;;17.52;10.85;;;20.50;45.60;;;;;;5050322;28;20048;-53
2022/11/29 01:51:18;;;;;;;16.42;10.85;;;20.50;45.70;;;;;;5044837;28;20022;-52
2022/11/29 01:53:44;;;;;;;17.10;10.77;;;20.50;45.70;;;;;;5045239;28;20029;-51
2022/11/29 01:56:13;;;;;;;16.77;10.50;;;20.50;45.70;;;;;;5045444;28;20040;-52
2022/11/29 01:58:41;;;;;;;16.63;10.68;;;20.50;45.70;;;;;;5042341;28;20052;-51
2022/11/29 02:01:06;;;;;;;15.35;10.30;;;20.50;45.70;;;;;;5041631;28;20029;-53
2022/11/29 02:03:32;;;;;;;13.65;9.27;;;20.50;45.70;;;;;;5041264;28;20036;-50
2022/11/29 02:05:59;;;;;;;13.95;9.85;;;20.50;45.70;;;;;;5041046;28;20056;-52
2022/11/29 02:08:32;;;;;;;14.65;10.02;;;20.50;45.70;;;;;;5042200;28;20044;-55
2022/11/29 02:11:22;;;;;;;15.00;10.15;;;20.50;45.80;;;;;;5040519;28;20349;-50
2022/11/29 02:14:38;;;;;;;15.52;10.57;;;20.50;45.70;;;;;;5039210;28;20033;-53
2022/11/29 02:17:29;;;;;;;14.75;10.45;;;20.40;45.70;;;;;;5040397;28;20479;-52
2022/11/29 02:20:06;;;;;;;15.55;10.35;;;20.40;45.70;;;;;;5038612;28;20064;-53
2022/11/29 02:22:57;;;;;;;14.38;9.73;;;20.40;45.80;;;;;;5041930;28;20029;-52
2022/11/29 02:25:49;;;;;;;14.27;9.88;;;20.40;45.80;;;;;;5045248;28;20033;-54
2022/11/29 02:28:35;;;;;;;14.85;10.23;;;20.40;45.80;;;;;;5025872;28;20044;-50
2022/11/29 02:31:01;;;;;;;13.63;9.63;;;20.40;45.80;;;;;;5049355;28;20108;-49
2022/11/29 02:34:00;;;;;;;14.63;10.60;;;20.40;45.80;;;;;;5042329;28;20576;-53
2022/11/29 02:36:29;;;;;;;15.18;10.38;;;20.40;45.80;;;;;;5040982;28;20080;-51
2022/11/29 02:38:57;;;;;;;14.27;9.60;;;20.40;45.90;;;;;;5042414;28;20141;-51
2022/11/29 02:41:35;;;;;;;15.48;10.00;;;20.40;45.90;;;;;;5036900;28;20033;-51
2022/11/29 02:44:06;;;;;;;15.90;11.27;;;20.40;45.90;;;;;;5041053;28;20096;-52
2022/11/29 02:46:58;;;;;;;13.75;9.82;;;20.30;45.90;;;;;;5037483;28;20426;-52
2022/11/29 02:49:45;;;;;;;13.23;10.13;;;20.30;45.90;;;;;;5046318;28;20091;-53
2022/11/29 02:52:31;;;;;;;16.10;10.30;;;20.30;45.90;;;;;;5042616;28;20041;-50
2022/11/29 02:55:16;;;;;;;14.75;9.88;;;20.30;46.50;;;;;;5042741;28;20043;-52
2022/11/29 02:57:58;;;;;;;16.00;9.82;;;20.30;45.90;;;;;;5046459;28;20028;-51
2022/11/29 03:00:24;;;;;;;15.90;10.13;;;20.30;45.90;;;;;;5043597;28;20030;-53
2022/11/29 03:02:50;;;;;;;16.20;11.23;;;20.30;46.50;;;;;;5047163;28;20112;-52
2022/11/29 03:05:35;;;;;;;16.02;10.75;;;20.30;45.90;;;;;;5046952;28;20393;-52
2022/11/29 03:08:04;;;;;;;14.10;10.38;;;20.30;45.90;;;;;;5042479;28;20403;-50
2022/11/29 03:10:55;;;;;;;16.58;11.27;;;20.30;45.90;;;;;;5041511;28;20104;-54
2022/11/29 03:13:32;;;;;;;16.08;10.68;;;20.30;45.90;;;;;;5038808;28;20037;-52
2022/11/29 03:16:26;;;;;;;16.80;11.27;;;20.30;45.90;;;;;;5038715;28;20403;-50
2022/11/29 03:19:04;;;;;;;15.10;10.57;;;20.30;45.90;;;;;;5046443;28;20454;-50
2022/11/29 03:21:36;;;;;;;16.67;10.40;;;20.30;45.90;;;;;;5043030;28;20025;-51
2022/11/29 03:24:14;;;;;;;15.48;10.50;;;20.20;45.80;;;;;;5047572;28;20017;-53
2022/11/29 03:26:44;;;;;;;17.85;11.07;;;20.30;45.90;;;;;;5042037;28;20439;-54
2022/11/29 03:29:40;;;;;;;16.63;10.98;;;20.30;45.90;;;;;;5045607;28;20069;-52
2022/11/29 03:32:28;;;;;;;15.40;11.38;;;20.30;45.90;;;;;;5045712;28;20373;-55
2022/11/29 03:34:58;;;;;;;15.65;10.70;;;20.20;45.80;;;;;;5039494;28;20032;-54
2022/11/29 03:37:31;;;;;;;15.57;10.48;;;20.20;45.80;;;;;;5041714;28;20041;-54
2022/11/29 03:40:12;;;;;;;14.60;10.18;;;20.20;45.90;;;;;;5044776;28;20048;-53
2022/11/29 03:42:53;;;;;;;14.55;10.68;;;20.20;45.90;;;;;;5048468;28;20029;-50
2022/11/29 03:45:41;;;;;;;16.17;11.02;;;20.20;46.00;;;;;;5048175;28;20346;-54
2022/11/29 03:48:14;;;;;;;16.00;11.07;;;20.20;46.00;;;;;;5050825;28;20033;-51
2022/11/29 03:51:00;;;;;;;16.63;10.83;;;20.20;46.00;;;;;;5052805;28;20072;-56
2022/11/29 03:53:32;;;;;;;14.13;10.13;;;20.20;46.00;;;;;;5047944;28;20313;-56
2022/11/29 03:56:01;;;;;;;14.68;10.68;;;20.20;46.10;;;;;;5045437;28;20039;-56
2022/11/29 03:58:58;;;;;;;14.02;9.85;;;20.20;46.10;;;;;;5050304;28;20022;-53
2022/11/29 04:01:46;;;;;;;16.83;10.85;;;20.20;46.10;;;;;;5041780;28;20025;-55
2022/11/29 04:04:25;;;;;;;15.93;10.57;;;20.20;46.10;;;;;;5049437;28;20108;-53
2022/11/29 04:06:54;;;;;;;16.85;10.85;;;20.20;46.10;;;;;;5048311;28;20033;-51
2022/11/29 04:09:58;;;;;;;13.85;10.30;;;20.20;46.10;;;;;;5049928;28;20052;-52
2022/11/29 04:12:45;;;;;;;16.70;11.15;;;20.20;46.10;;;;;;5047167;28;20041;-54
2022/11/29 04:15:29;;;;;;;14.32;10.35;;;20.20;46.20;;;;;;5048357;28;20021;-55
2022/11/29 04:18:20;;;;;;;15.90;11.15;;;20.10;46.10;;;;;;5041318;28;20132;-53
2022/11/29 04:20:52;;;;;;;16.42;10.38;;;20.10;46.10;;;;;;5047312;28;20139;-49
2022/11/29 04:23:55;;;;;;;15.95;10.85;;;20.20;46.20;;;;;;5045963;28;20056;-54
2022/11/29 04:26:42;;;;;;;15.32;10.13;;;20.10;46.10;;;;;;5044577;28;20037;-50
2022/11/29 04:29:20;;;;;;;16.42;10.38;;;20.10;46.20;;;;;;5049588;28;20116;-52
2022/11/29 04:32:10;;;;;;;14.90;10.48;;;20.10;46.20;;;;;;5049814;28;20121;-54
2022/11/29 04:35:11;;;;;;;14.00;10.35;;;20.10;46.20;;;;;;5042859;28;20041;-52
2022/11/29 04:37:58;;;;;;;14.73;10.48;;;20.10;46.20;;;;;;5045329;28;20044;-51
2022/11/29 04:40:46;;;;;;;14.73;10.25;;;20.10;46.20;;;;;;5055205;28;20048;-53
2022/11/29 04:43:34;;;;;;;14.13;10.30;;;20.10;46.80;;;;;;5028099;28;20132;-54
2022/11/29 04:46:09;;;;;;;15.48;10.23;;;20.10;46.20;;;;;;5036815;28;20183;-54
2022/11/29 04:48:55;;;;;;;16.35;10.90;;;20.10;46.20;;;;;;5042056;28;20033;-53
2022/11/29 04:51:30;;;;;;;15.10;10.13;;;20.00;46.20;;;;;;5005555;28;20091;-51
2022/11/29 04:54:04;;;;;;;15.48;10.13;;;20.10;46.20;;;;;;5044564;28;20044;-50
2022/11/29 04:56:41;;;;;;;15.57;10.63;;;20.10;46.20;;;;;;5045769;28;20464;-50
2022/11/29 04:59:22;;;;;;;16.60;10.38;;;20.10;46.30;;;;;;5046029;28;20025;-49
2022/11/29 05:02:08;;;;;;;14.40;9.77;;;20.10;46.30;;;;;;5047810;28;20330;-49
2022/11/29 05:04:43;;;;;;;16.30;10.45;;;20.10;46.20;;;;;;5049055;28;20025;-51
2022/11/29 05:07:29;;;;;;;14.95;10.63;;;20.00;46.20;;;;;;5046151;28;20032;-50
2022/11/29 05:10:26;;;;;;;14.68;10.73;;;20.00;46.20;;;;;;5034050;28;20095;-51
2022/11/29 05:13:16;;;;;;;15.18;10.32;;;20.00;46.20;;;;;;5048695;28;20131;-53
2022/11/29 05:16:07;;;;;;;15.98;11.10;;;20.00;46.30;;;;;;5049543;28;20021;-51
2022/11/29 05:18:33;;;;;;;15.15;10.63;;;20.00;46.60;;;;;;5042872;28;20029;-55
2022/11/29 05:21:09;;;;;;;15.65;10.10;;;20.00;46.30;;;;;;5047261;28;20498;-54
2022/11/29 05:23:54;;;;;;;15.65;10.57;;;20.00;46.40;;;;;;5051450;28;20025;-54
2022/11/29 05:26:40;;;;;;;16.67;10.70;;;20.00;46.40;;;;;;5050520;28;20036;-53
2022/11/29 05:29:18;;;;;;;15.77;10.85;;;20.00;46.40;;;;;;5026201;28;20263;-58
2022/11/29 05:32:06;;;;;;;16.38;11.48;;;20.00;46.30;;;;;;5046997;28;20029;-52
2022/11/29 05:34:38;;;;;;;15.45;10.50;;;20.00;46.40;;;;;;5047508;28;20047;-54
2022/11/29 05:37:07;;;;;;;15.40;10.52;;;20.00;46.40;;;;;;5047144;28;20025;-56
2022/11/29 05:39:52;;;;;;;15.68;10.57;;;20.00;46.40;;;;;;5039987;28;20021;-49
2022/11/29 05:42:26;;;;;;;17.63;11.45;;;20.00;46.50;;;;;;5048169;28;20028;-53
2022/11/29 05:45:29;;;;;;;15.15;11.10;;;20.00;46.40;;;;;;5048254;28;20059;-54
2022/11/29 05:48:18;;;;;;;17.50;11.63;;;20.00;46.50;;;;;;4994666;28;20069;-51
2022/11/29 05:51:09;;;;;;;17.77;12.48;;;20.00;46.40;;;;;;5045319;28;20040;-52
2022/11/29 05:53:43;;;;;;;16.90;11.57;;;20.00;46.40;;;;;;5046585;28;20299;-55
2022/11/29 05:56:34;;;;;;;16.15;11.57;;;20.00;46.50;;;;;;5040402;28;20029;-56
2022/11/29 05:59:09;;;;;;;15.45;10.63;;;20.00;46.50;;;;;;5038318;28;20357;-54
2022/11/29 06:01:55;;;;;;;17.33;10.90;;;20.00;46.50;;;;;;5047149;28;20141;-55
2022/11/29 06:04:44;;;;;;;15.20;10.95;;;20.00;46.50;;;;;;5043885;28;20400;-53
2022/11/29 06:07:32;;;;;;;15.35;10.70;;;20.00;46.50;;;;;;5043844;28;20119;-56
2022/11/29 06:10:16;;;;;;;16.38;10.73;;;20.00;46.40;;;;;;5046656;28;20033;-52
2022/11/29 06:13:05;;;;;;;13.30;9.90;;;20.00;46.40;;;;;;5026885;28;20458;-56
2022/11/29 06:15:44;;;;;;;14.25;9.63;;;19.90;46.40;;;;;;5026594;28;20033;-52
2022/11/29 06:18:39;;;;;;;15.27;10.10;;;19.90;46.40;;;;;;5044110;28;20136;-54
2022/11/29 06:21:19;;;;;;;16.58;11.23;;;19.90;46.40;;;;;;5023146;28;20041;-50
2022/11/29 06:24:29;;;;;;;13.48;9.27;;;19.90;46.40;;;;;;5046184;28;20032;-51
2022/11/29 06:27:21;;;;;;;15.45;9.95;;;19.90;46.50;;;;;;5022774;28;20041;-54
2022/11/29 06:29:59;;;;;;;14.25;9.10;;;19.90;46.50;;;;;;5039789;28;20025;-56
2022/11/29 06:32:31;;;;;;;15.57;11.13;;;19.90;46.50;;;;;;5039507;28;20135;-53
2022/11/29 06:35:20;;;;;;;16.92;11.80;;;19.90;46.50;;;;;;5045095;28;20028;-51
2022/11/29 06:37:51;;;;;;;16.67;10.57;;;19.90;46.50;;;;;;5048087;28;20437;-55
2022/11/29 06:40:17;;;;;;;17.75;10.95;;;19.90;46.50;;;;;;5051912;28;20021;-52
2022/11/29 06:42:43;;;;;;;16.65;10.63;;;19.90;46.50;;;;;;5045188;28;20124;-55
2022/11/29 06:45:13;;;;;;;15.30;10.40;;;19.90;46.50;;;;;;5045722;28;20043;-56
2022/11/29 06:47:51;;;;;;;15.43;11.10;;;19.90;46.50;;;;;;5044034;28;20388;-55
2022/11/29 06:50:32;;;;;;;14.73;10.50;;;19.90;46.50;;;;;;5043747;28;20041;-52
2022/11/29 06:53:01;;;;;;;15.07;9.85;;;19.90;46.50;;;;;;5041552;28;20033;-52
2022/11/29 06:55:49;;;;;;;13.43;9.13;;;19.90;46.50;;;;;;5049032;28;20037;-54
2022/11/29 06:58:50;;;;;;;16.02;9.93;;;19.90;46.50;;;;;;5053828;28;20103;-51
2022/11/29 07:01:26;;;;;;;13.75;9.88;;;19.90;46.50;;;;;;5027693;28;20386;-51
2022/11/29 07:03:55;;;;;;;13.95;8.95;;;19.90;46.50;;;;;;5043683;28;20064;-52
2022/11/29 07:06:24;;;;;;;15.13;10.05;;;19.90;46.50;;;;;;5040237;28;20345;-56
2022/11/29 07:08:58;;;;;;;13.25;9.52;;;19.90;46.50;;;;;;5044654;28;20021;-55
2022/11/29 07:11:26;;;;;;;12.32;8.80;;;19.90;46.50;;;;;;5020502;28;20026;-51
2022/11/29 07:13:52;;;;;;;14.15;10.15;;;19.80;46.40;;;;;;5044435;28;20033;-55
2022/11/29 07:16:18;;;;;;;13.68;9.30;;;19.90;46.40;;;;;;5036184;28;20349;-54
2022/11/29 07:19:10;;;;;;;13.88;9.30;;;19.90;46.40;;;;;;5046845;28;20033;-54
2022/11/29 07:21:53;;;;;;;12.75;9.00;;;19.90;46.40;;;;;;5048001;28;20037;-54
2022/11/29 07:24:49;;;;;;;14.52;9.93;;;19.90;46.40;;;;;;5043494;28;20103;-57
2022/11/29 07:27:22;;;;;;;13.40;9.15;;;19.90;46.30;;;;;;5048278;28;20037;-54
2022/11/29 07:30:11;;;;;;;12.68;8.30;;;19.90;47.00;;;;;;5047337;28;20503;-54
2022/11/29 07:32:55;;;;;;;15.65;9.32;;;19.80;46.40;;;;;;5047758;28;20039;-53
2022/11/29 07:35:43;;;;;;;13.32;8.82;;;19.90;46.40;;;;;;5025857;28;20100;-53
2022/11/29 07:38:13;;;;;;;11.98;8.55;;;19.90;46.40;;;;;;5040555;28;20038;-54
2022/11/29 07:40:49;;;;;;;13.45;9.05;;;19.80;46.40;;;;;;5023990;28;20116;-52
2022/11/29 07:43:20;;;;;;;13.82;9.57;;;19.80;46.40;;;;;;5047831;28;20037;-54
2022/11/29 07:45:46;;;;;;;12.43;8.45;;;19.80;46.40;;;;;;5047129;28;20087;-51
2022/11/29 07:48:16;;;;;;;12.73;9.23;;;19.80;46.40;;;;;;5045441;28;20033;-53
2022/11/29 07:50:42;;;;;;;12.57;8.32;;;19.80;46.40;;;;;;5048077;28;20051;-54
2022/11/29 07:53:20;;;;;;;12.63;8.65;;;19.80;46.40;;;;;;5047844;28;20052;-56
2022/11/29 07:55:46;;;;;;;12.02;8.32;;;19.80;46.40;;;;;;5025602;28;20345;-51
2022/11/29 07:58:13;;;;;;;13.43;8.68;;;19.80;46.40;;;;;;5045789;28;20111;-53
2022/11/29 08:00:42;;;;;;;11.98;7.95;;;19.80;46.50;;;;;;5046444;28;20040;-57
2022/11/29 08:03:10;;;;;;;11.35;8.07;;;19.90;46.50;;;;;;5039121;28;20040;-55
2022/11/29 08:05:39;;;;;;;11.68;7.88;;;19.80;46.50;;;;;;5046261;28;20034;-54
2022/11/29 08:08:05;;;;;;;11.23;7.30;;;19.90;46.60;;;;;;5036361;28;20112;-55
2022/11/29 08:10:31;;;;;;;11.13;7.53;;;19.90;46.70;;;;;;5037681;28;20048;-50
2022/11/29 08:12:57;;;;;;;12.70;7.57;;;20.00;46.80;;;;;;5045084;28;20052;-55
2022/11/29 08:15:24;;;;;;;12.13;7.25;;;20.00;46.80;;;;;;5042680;28;20021;-55
2022/11/29 08:17:50;;;;;;;10.52;6.60;;;20.00;46.90;;;;;;5044357;28;20061;-53
2022/11/29 08:20:16;;;;;;;11.57;7.60;;;20.00;46.90;;;;;;5037672;28;20140;-53
2022/11/29 08:22:42;;;;;;;12.07;7.10;;;20.10;46.90;;;;;;5035152;28;20090;-54
2022/11/29 08:25:09;;;;;;;11.10;6.88;;;20.20;46.80;;;;;;5046319;28;20055;-53
2022/11/29 08:27:38;;;;;;;11.38;6.90;;;20.20;46.70;;;;;;5045174;28;20033;-53
2022/11/29 08:30:05;;;;;;;9.90;6.47;;;20.30;46.60;;;;;;5050716;28;20094;-50
2022/11/29 08:32:32;;;;;;;8.90;6.45;;;20.30;46.50;;;;;;5053408;28;20029;-52
2022/11/29 08:34:58;;;;;;;10.93;6.82;;;20.40;46.40;;;;;;5040363;28;20029;-50
2022/11/29 08:37:23;;;;;;;9.85;6.88;;;20.40;46.30;;;;;;5048522;28;20029;-51
2022/11/29 08:39:49;;;;;;;11.15;7.38;;;20.50;46.20;;;;;;5050597;28;20402;-51
2022/11/29 08:42:15;;;;;;;8.45;5.50;;;20.50;46.00;;;;;;5032359;28;20033;-51
2022/11/29 08:44:41;;;;;;;7.75;5.43;;;20.60;46.10;;;;;;5050845;28;20467;-52
2022/11/29 08:47:42;;;;;;;8.32;5.82;;;20.60;46.00;;;;;;5052568;28;20028;-50
2022/11/29 08:50:13;;;;;;;8.52;5.53;;;20.70;45.90;;;;;;5048577;28;20349;-51
2022/11/29 08:55:31;;;;;;;7.80;4.85;;;20.80;45.70;;;;;;5052594;28;20103;-55
2022/11/29 08:58:07;;;;;;;8.68;5.63;;;20.90;45.60;;;;;;5050995;28;20037;-50
2022/11/29 09:00:33;;;;;;;6.70;4.57;;;20.90;45.50;;;;;;5054227;28;20044;-49
2022/11/29 09:05:46;;;;;;;7.93;5.00;;;21.00;45.30;;;;;;5045992;28;20104;-56
2022/11/29 09:08:12;;;;;;;7.70;4.55;;;21.10;45.30;;;;;;5052691;28;20212;-54
2022/11/29 09:10:39;;;;;;;9.32;5.00;;;21.10;45.20;;;;;;5044215;28;20084;-52
2022/11/29 09:13:06;;;;;;;6.03;4.53;;;21.10;45.10;;;;;;5037501;28;20045;-56
2022/11/29 09:15:33;;;;;;;7.20;4.85;;;21.20;45.10;;;;;;5039119;28;20024;-56
2022/11/29 09:17:58;;;;;;;7.45;4.38;;;21.20;45.00;;;;;;5052244;28;20051;-52
2022/11/29 09:20:24;;;;;;;6.53;4.47;;;21.20;44.90;;;;;;5054059;28;20033;-58
2022/11/29 09:22:50;;;;;;;9.18;5.40;;;21.30;44.90;;;;;;5031660;28;20098;-57
2022/11/29 09:25:19;;;;;;;6.18;4.32;;;21.30;45.00;;;;;;5048582;28;20047;-60
2022/11/29 09:27:45;;;;;;;8.52;4.97;;;21.40;45.10;;;;;;5047022;28;20290;-58
2022/11/29 09:30:11;;;;;;;7.50;4.63;;;21.40;45.20;;;;;;5044948;28;20442;-55
2022/11/29 09:32:37;;;;;;;7.05;4.60;;;21.50;45.30;;;;;;5036854;28;20048;-56
2022/11/29 09:35:03;;;;;;;7.25;4.88;;;21.50;45.20;;;;;;5043319;28;20033;-55
2022/11/29 09:37:28;;;;;;;6.65;4.70;;;21.70;45.10;;;;;;5054224;28;20433;-53
2022/11/29 09:39:54;;;;;;;7.97;4.93;;;21.80;45.50;;;;;;5046624;28;20018;-56
2022/11/29 09:42:48;;;;;;;7.93;5.13;;;21.80;44.60;;;;;;5036807;28;20026;-55
2022/11/29 09:45:25;;;;;;;7.70;4.53;;;21.90;44.40;;;;;;5037239;28;20075;-55
2022/11/29 09:48:11;;;;;;;6.43;4.50;;;21.90;44.10;;;;;;5056467;28;20049;-54
2022/11/29 09:50:45;;;;;;;7.30;4.47;;;22.00;44.00;;;;;;5056895;28;20029;-57
2022/11/29 09:53:31;;;;;;;6.47;4.45;;;22.00;43.90;;;;;;5056088;28;20036;-53
2022/11/29 09:56:09;;;;;;;6.32;4.30;;;22.00;43.80;;;;;;5043128;28;20063;-57
2022/11/29 09:59:04;;;;;;;7.03;4.32;;;22.00;43.70;;;;;;5038563;28;20048;-54
2022/11/29 10:01:57;;;;;;;6.15;3.92;;;22.00;44.20;;;;;;5049258;28;20127;-55
2022/11/29 10:04:28;;;;;;;5.68;3.95;;;22.00;43.60;;;;;;5045836;28;20052;-55
2022/11/29 10:07:01;;;;;;;5.32;3.92;;;22.00;43.50;;;;;;5035972;28;20021;-56
2022/11/29 10:09:39;;;;;;;7.65;4.55;;;22.00;43.50;;;;;;5039379;28;20102;-55
2022/11/29 10:12:22;;;;;;;6.03;3.92;;;22.00;43.50;;;;;;5050629;28;20124;-52
2022/11/29 10:15:04;;;;;;;5.90;3.90;;;21.90;43.40;;;;;;5054754;28;20036;-56
2022/11/29 10:17:36;;;;;;;5.32;3.72;;;21.90;43.40;;;;;;5053570;28;20117;-53
2022/11/29 10:20:09;;;;;;;6.95;3.92;;;21.90;43.40;;;;;;5036240;28;20057;-52
2022/11/29 10:22:53;;;;;;;5.40;3.85;;;21.90;43.40;;;;;;5036361;28;20502;-56
2022/11/29 10:25:29;;;;;;;5.07;3.60;;;21.90;43.40;;;;;;5018149;28;20033;-56
2022/11/29 10:27:55;;;;;;;6.18;4.22;;;21.90;43.40;;;;;;5044341;28;20033;-55
2022/11/29 10:30:21;;;;;;;6.40;3.78;;;21.90;43.40;;;;;;5036491;28;20052;-55
2022/11/29 10:32:58;;;;;;;4.45;3.30;;;21.80;43.40;;;;;;5035722;28;20033;-51
2022/11/29 10:35:24;;;;;;;6.22;3.53;;;21.80;43.40;;;;;;5036161;28;20033;-52
2022/11/29 10:37:53;;;;;;;6.82;3.92;;;21.80;43.40;;;;;;5038804;28;20494;-56
2022/11/29 10:40:24;;;;;;;4.95;3.42;;;21.80;43.50;;;;;;5055572;28;20415;-58
2022/11/29 10:42:52;;;;;;;5.57;3.80;;;21.80;43.40;;;;;;5055452;28;20025;-55
2022/11/29 10:45:33;;;;;;;5.63;3.47;;;21.80;43.50;;;;;;5056286;28;20025;-53
2022/11/29 10:48:08;;;;;;;4.60;3.10;;;21.80;43.50;;;;;;5032891;28;20029;-56
2022/11/29 10:50:35;;;;;;;5.20;3.33;;;21.80;43.50;;;;;;5035468;28;20067;-50
2022/11/29 10:53:05;;;;;;;8.25;3.78;;;21.70;43.50;;;;;;5035484;28;20041;-52
2022/11/29 10:56:07;;;;;;;5.32;3.38;;;21.70;43.50;;;;;;5035719;28;20068;-55
2022/11/29 10:58:33;;;;;;;4.55;3.20;;;21.70;43.50;;;;;;5044000;28;20512;-56
2022/11/29 11:01:05;;;;;;;6.53;3.50;;;21.70;43.50;;;;;;5055174;28;20334;-58
2022/11/29 11:03:41;;;;;;;5.90;3.40;;;21.70;43.50;;;;;;5055913;28;20029;-57
2022/11/29 11:06:17;;;;;;;5.15;3.30;;;21.70;43.60;;;;;;5054648;28;20124;-48
2022/11/29 11:08:48;;;;;;;5.47;3.55;;;21.70;43.60;;;;;;5053533;28;20099;-53
2022/11/29 11:11:30;;;;;;;5.63;3.35;;;21.70;43.60;;;;;;5047562;28;20460;-53
2022/11/29 11:14:04;;;;;;;5.00;3.00;;;21.70;43.60;;;;;;5046153;28;20051;-53
2022/11/29 11:16:30;;;;;;;5.40;3.30;;;21.70;43.70;;;;;;5029197;28;20040;-54
2022/11/29 11:18:56;;;;;;;5.68;3.10;;;21.70;43.80;;;;;;5049693;28;20032;-57
2022/11/29 11:21:26;;;;;;;5.60;3.20;;;21.70;44.00;;;;;;5048461;28;20024;-55
2022/11/29 11:23:52;;;;;;;5.90;3.45;;;21.70;44.10;;;;;;5048310;28;20029;-54
2022/11/29 11:26:19;;;;;;;6.63;3.13;;;21.70;44.10;;;;;;5037511;28;20029;-50
2022/11/29 11:28:58;;;;;;;5.40;2.70;;;21.70;44.20;;;;;;5045263;28;20068;-53
2022/11/29 11:31:36;;;;;;;5.05;3.10;;;21.70;44.10;;;;;;5044278;28;20032;-54
2022/11/29 11:34:33;;;;;;;6.88;3.22;;;21.70;44.20;;;;;;5046293;28;20044;-53
2022/11/29 11:37:15;;;;;;;5.43;3.45;;;21.70;44.30;;;;;;5021800;28;20060;-58
2022/11/29 11:39:42;;;;;;;5.40;2.80;;;21.70;44.50;;;;;;5029514;28;20021;-59
2022/11/29 11:45:00;;;;;;;5.65;2.80;;;21.70;44.80;;;;;;5046780;28;20033;-56
2022/11/29 11:47:29;;;;;;;5.65;3.13;;;21.80;44.90;;;;;;5045742;28;20186;-57
2022/11/29 11:50:02;;;;;;;5.65;3.20;;;21.90;45.00;;;;;;5048885;28;20133;-55
2022/11/29 11:52:53;;;;;;;5.95;2.95;;;22.00;45.00;;;;;;5041153;28;20128;-56
2022/11/29 11:55:42;;;;;;;4.68;2.58;;;22.10;44.90;;;;;;5046161;28;20063;-57
2022/11/29 11:58:11;;;;;;;4.95;2.53;;;22.30;44.80;;;;;;5049801;28;20025;-58
2022/11/29 12:00:47;;;;;;;6.22;3.28;;;22.30;44.50;;;;;;5046571;28;20025;-58
2022/11/29 12:03:44;;;;;;;5.18;2.72;;;22.40;44.40;;;;;;5050446;28;20525;-53
2022/11/29 12:06:17;;;;;;;4.10;2.60;;;22.60;44.30;;;;;;5046328;28;20524;-51
2022/11/29 12:08:46;;;;;;;4.47;2.85;;;22.70;44.10;;;;;;5046799;28;20025;-53
2022/11/29 12:11:16;;;;;;;7.07;3.00;;;22.80;44.00;;;;;;5045095;28;20025;-53
2022/11/29 12:13:56;;;;;;;5.93;2.75;;;22.90;43.90;;;;;;5044538;28;20064;-57
2022/11/29 12:16:30;;;;;;;7.38;2.45;;;23.00;43.80;;;;;;5046728;28;20065;-55
2022/11/29 12:19:12;;;;;;;6.43;3.03;;;23.10;43.70;;;;;;5046790;28;20032;-53
2022/11/29 12:21:42;;;;;;;6.22;2.50;;;23.10;43.50;;;;;;5047712;28;20029;-54
2022/11/29 12:24:33;;;;;;;5.93;2.85;;;23.20;43.30;;;;;;5042948;28;20037;-50
2022/11/29 12:27:03;;;;;;;6.70;3.28;;;23.30;43.10;;;;;;5040512;28;20044;-52
2022/11/29 12:29:33;;;;;;;5.63;3.05;;;23.30;42.90;;;;;;5045096;28;20110;-56
2022/11/29 12:32:23;;;;;;;7.90;3.15;;;23.40;42.70;;;;;;5045830;28;20049;-55
2022/11/29 12:35:27;;;;;;;7.43;3.13;;;23.40;42.50;;;;;;5045538;28;20044;-53
2022/11/29 12:38:30;;;;;;;5.65;3.15;;;23.40;42.30;;;;;;5046002;28;20037;-56
2022/11/29 12:41:25;;;;;;;6.80;3.13;;;23.50;42.30;;;;;;5045928;28;20044;-53
2022/11/29 12:44:04;;;;;;;7.25;2.75;;;23.50;42.30;;;;;;5045024;28;20040;-55
2022/11/29 12:46:31;;;;;;;5.03;2.95;;;23.50;42.30;;;;;;5047523;28;20033;-54
2022/11/29 12:49:21;;;;;;;6.78;2.63;;;23.60;42.30;;;;;;5042713;28;20025;-51
2022/11/29 12:52:01;;;;;;;4.85;2.55;;;23.60;42.30;;;;;;5046184;28;20028;-54
2022/11/29 12:54:44;;;;;;;8.55;3.17;;;23.60;42.30;;;;;;5042637;28;20044;-56
2022/11/29 12:57:49;;;;;;;9.02;3.17;;;23.70;42.40;;;;;;5047650;28;20047;-55
2022/11/29 13:00:18;;;;;;;7.32;2.90;;;23.70;42.40;;;;;;5025386;28;20029;-58
2022/11/29 13:02:55;;;;;;;7.18;2.72;;;23.80;42.40;;;;;;5042435;28;20033;-58
2022/11/29 13:05:32;;;;;;;7.68;3.33;;;23.80;42.30;;;;;;5027007;28;20033;-57
2022/11/29 13:08:19;;;;;;;6.28;3.13;;;23.90;42.30;;;;;;5047470;28;20051;-58
2022/11/29 13:10:57;;;;;;;10.45;2.97;;;23.90;42.20;;;;;;5047255;28;20168;-61
2022/11/29 13:13:39;;;;;;;8.45;3.13;;;23.90;42.20;;;;;;5044881;28;20106;-58
2022/11/29 13:16:10;;;;;;;7.57;3.67;;;24.00;42.20;;;;;;5026630;28;20033;-58
2022/11/29 13:19:03;;;;;;;9.18;3.85;;;24.00;42.20;;;;;;5046553;28;20071;-53
2022/11/29 13:21:44;;;;;;;9.00;3.95;;;24.00;42.10;;;;;;5044635;28;20053;-57
2022/11/29 13:24:21;;;;;;;6.30;3.58;;;24.10;42.00;;;;;;5045206;28;20052;-58
2022/11/29 13:26:47;;;;;;;5.55;3.75;;;24.10;41.90;;;;;;5050233;28;20028;-56
2022/11/29 13:29:15;;;;;;;9.50;3.75;;;24.10;41.80;;;;;;5045109;28;20040;-56